SWA3354 KMYR-KBNA
Flight info
| Callsign | SWA3354 |
|---|---|
| Flight time | 1h 12m |
| Altitude | 32000 |
| Route | FLO AWYAT JAARE VXV EDDDY SWFFT3 |
| Aircraft | B738/M-SDE2E3FGHIRWXY/LB1 |
Departure
| Time | 2026-04-23 19:02 |
|---|---|
| Airport | Myrtle Beach International Airport (KMYR) |
Arrival
| Time | 2026-04-23 20:14 |
|---|---|
| Airport | Nashville International Airport (KBNA) |
| Time | Latitude | Longitude | Altitude | Speed | Heading |
|---|---|---|---|---|---|
| 2026-04-23 18:39 | 33.68253 | -78.92412 | 31 ft | 0 kts | 93° |
| 2026-04-23 18:55 | 33.68254 | -78.92422 | 31 ft | 3 kts | 93° |
| 2026-04-23 18:55 | 33.68255 | -78.92444 | 31 ft | 3 kts | 93° |
| 2026-04-23 18:55 | 33.68256 | -78.92466 | 31 ft | 3 kts | 93° |
| 2026-04-23 18:56 | 33.68256 | -78.92482 | 31 ft | 0 kts | 93° |
| 2026-04-23 18:58 | 33.68256 | -78.92481 | 31 ft | 1 kts | 93° |
| 2026-04-23 18:58 | 33.68248 | -78.92469 | 30 ft | 3 kts | 163° |
| 2026-04-23 18:58 | 33.68222 | -78.92486 | 31 ft | 5 kts | 219° |
| 2026-04-23 18:58 | 33.68189 | -78.92535 | 31 ft | 9 kts | 243° |
| 2026-04-23 18:59 | 33.68176 | -78.92620 | 31 ft | 12 kts | 264° |
| 2026-04-23 18:59 | 33.68222 | -78.92689 | 31 ft | 13 kts | 348° |
| 2026-04-23 18:59 | 33.68325 | -78.92714 | 31 ft | 18 kts | 348° |
| 2026-04-23 18:59 | 33.68467 | -78.92750 | 31 ft | 22 kts | 348° |
| 2026-04-23 19:00 | 33.68624 | -78.92789 | 31 ft | 24 kts | 348° |
| 2026-04-23 19:00 | 33.68780 | -78.92829 | 31 ft | 23 kts | 348° |
| 2026-04-23 19:00 | 33.68933 | -78.92857 | 31 ft | 22 kts | 4° |
| 2026-04-23 19:00 | 33.69087 | -78.92861 | 31 ft | 23 kts | 347° |
| 2026-04-23 19:01 | 33.69234 | -78.92898 | 31 ft | 18 kts | 345° |
| 2026-04-23 19:01 | 33.69265 | -78.92990 | 31 ft | 12 kts | 257° |
| 2026-04-23 19:01 | 33.69248 | -78.93085 | 30 ft | 12 kts | 259° |
| 2026-04-23 19:01 | 33.69211 | -78.93141 | 32 ft | 8 kts | 167° |
| 2026-04-23 19:02 | 33.69063 | -78.93105 | 34 ft | 53 kts | 169° |
| 2026-04-23 19:02 | 33.68452 | -78.92952 | 30 ft | 124 kts | 169° |
| 2026-04-23 19:02 | 33.67408 | -78.92686 | 103 ft | 174 kts | 171° |
| 2026-04-23 19:02 | 33.66267 | -78.92347 | 1033 ft | 163 kts | 170° |
| 2026-04-23 19:03 | 33.65135 | -78.92016 | 1726 ft | 177 kts | 174° |
| 2026-04-23 19:03 | 33.63840 | -78.91690 | 2222 ft | 201 kts | 177° |
| 2026-04-23 19:03 | 33.62412 | -78.91905 | 2564 ft | 214 kts | 213° |
| 2026-04-23 19:03 | 33.61454 | -78.93175 | 3177 ft | 211 kts | 254° |
| 2026-04-23 19:04 | 33.61413 | -78.94999 | 3541 ft | 235 kts | 289° |
| 2026-04-23 19:04 | 33.62340 | -78.96675 | 4046 ft | 253 kts | 310° |
| 2026-04-23 19:04 | 33.63510 | -78.98262 | 4997 ft | 254 kts | 311° |
| 2026-04-23 19:04 | 33.64701 | -78.99879 | 5844 ft | 262 kts | 311° |
| 2026-04-23 19:05 | 33.65906 | -79.01523 | 6656 ft | 267 kts | 311° |
| 2026-04-23 19:05 | 33.67154 | -79.03236 | 7386 ft | 274 kts | 311° |
| 2026-04-23 19:05 | 33.68437 | -79.04955 | 8275 ft | 277 kts | 314° |
| 2026-04-23 19:05 | 33.69844 | -79.06578 | 9051 ft | 283 kts | 316° |
| 2026-04-23 19:06 | 33.71301 | -79.08169 | 9849 ft | 288 kts | 316° |
| 2026-04-23 19:06 | 33.72806 | -79.09797 | 10548 ft | 297 kts | 316° |
| 2026-04-23 19:06 | 33.74406 | -79.11535 | 10784 ft | 321 kts | 316° |
| 2026-04-23 19:06 | 33.76109 | -79.13393 | 10951 ft | 345 kts | 317° |
| 2026-04-23 19:07 | 33.77930 | -79.15384 | 11483 ft | 354 kts | 316° |
| 2026-04-23 19:07 | 33.79766 | -79.17396 | 12288 ft | 356 kts | 316° |
| 2026-04-23 19:07 | 33.81587 | -79.19396 | 13044 ft | 360 kts | 316° |
| 2026-04-23 19:07 | 33.83452 | -79.21448 | 13697 ft | 365 kts | 317° |
| 2026-04-23 19:08 | 33.85324 | -79.23511 | 14375 ft | 368 kts | 317° |
| 2026-04-23 19:08 | 33.87233 | -79.25618 | 15055 ft | 371 kts | 317° |
| 2026-04-23 19:08 | 33.89117 | -79.27698 | 15689 ft | 375 kts | 317° |
| 2026-04-23 19:08 | 33.91067 | -79.29854 | 16270 ft | 380 kts | 317° |
| 2026-04-23 19:09 | 33.93006 | -79.31999 | 16892 ft | 382 kts | 317° |
| 2026-04-23 19:09 | 33.94971 | -79.34173 | 17576 ft | 385 kts | 317° |
| 2026-04-23 19:09 | 33.96963 | -79.36381 | 18132 ft | 390 kts | 317° |
| 2026-04-23 19:09 | 33.98963 | -79.38599 | 18595 ft | 397 kts | 317° |
| 2026-04-23 19:10 | 34.01010 | -79.40871 | 19150 ft | 398 kts | 317° |
| 2026-04-23 19:10 | 34.03037 | -79.43120 | 19731 ft | 400 kts | 318° |
| 2026-04-23 19:10 | 34.05110 | -79.45422 | 20123 ft | 408 kts | 317° |
| 2026-04-23 19:10 | 34.07213 | -79.47759 | 20520 ft | 413 kts | 317° |
| 2026-04-23 19:11 | 34.09329 | -79.50113 | 21089 ft | 414 kts | 317° |
| 2026-04-23 19:11 | 34.11438 | -79.52460 | 21618 ft | 416 kts | 318° |
| 2026-04-23 19:11 | 34.13586 | -79.54854 | 22056 ft | 420 kts | 318° |
| 2026-04-23 19:11 | 34.15733 | -79.57248 | 22437 ft | 426 kts | 317° |
| 2026-04-23 19:12 | 34.17209 | -79.58894 | 22751 ft | 427 kts | 317° |
| 2026-04-23 19:12 | 34.20111 | -79.62133 | 23392 ft | 430 kts | 318° |
| 2026-04-23 19:12 | 34.22279 | -79.64672 | 23783 ft | 434 kts | 312° |
| 2026-04-23 19:12 | 34.24119 | -79.67546 | 24098 ft | 439 kts | 303° |
| 2026-04-23 19:13 | 34.25589 | -79.70793 | 24603 ft | 438 kts | 298° |
| 2026-04-23 19:13 | 34.26963 | -79.74093 | 25049 ft | 438 kts | 297° |
| 2026-04-23 19:13 | 34.28319 | -79.77380 | 25375 ft | 442 kts | 297° |
| 2026-04-23 19:13 | 34.29706 | -79.80737 | 25743 ft | 444 kts | 297° |
| 2026-04-23 19:14 | 34.31084 | -79.84051 | 26129 ft | 445 kts | 298° |
| 2026-04-23 19:14 | 34.32484 | -79.87404 | 26512 ft | 446 kts | 297° |
| 2026-04-23 19:14 | 34.33899 | -79.90777 | 26792 ft | 450 kts | 297° |
| 2026-04-23 19:14 | 34.35306 | -79.94127 | 27115 ft | 452 kts | 297° |
| 2026-04-23 19:15 | 34.36734 | -79.97525 | 27478 ft | 453 kts | 297° |
| 2026-04-23 19:15 | 34.38168 | -80.00938 | 27829 ft | 454 kts | 297° |
| 2026-04-23 19:15 | 34.39607 | -80.04365 | 28181 ft | 455 kts | 297° |
| 2026-04-23 19:15 | 34.41040 | -80.07783 | 28598 ft | 454 kts | 298° |
| 2026-04-23 19:16 | 34.42449 | -80.11148 | 29133 ft | 451 kts | 298° |
| 2026-04-23 19:16 | 34.43866 | -80.14537 | 29698 ft | 448 kts | 298° |
| 2026-04-23 19:16 | 34.45273 | -80.17903 | 30209 ft | 445 kts | 298° |
| 2026-04-23 19:17 | 34.48054 | -80.24569 | 30952 ft | 443 kts | 298° |
| 2026-04-23 19:17 | 34.49434 | -80.27881 | 31260 ft | 444 kts | 298° |
| 2026-04-23 19:17 | 34.50838 | -80.31253 | 31596 ft | 444 kts | 298° |
| 2026-04-23 19:17 | 34.52211 | -80.34556 | 31963 ft | 442 kts | 298° |
| 2026-04-23 19:18 | 34.53604 | -80.37910 | 32136 ft | 445 kts | 298° |
| 2026-04-23 19:18 | 34.55010 | -80.41295 | 32132 ft | 448 kts | 298° |
| 2026-04-23 19:18 | 34.57791 | -80.48008 | 32128 ft | 442 kts | 297° |
| 2026-04-23 19:19 | 34.61919 | -80.57997 | 32141 ft | 441 kts | 297° |
| 2026-04-23 19:20 | 34.66040 | -80.67995 | 32166 ft | 443 kts | 297° |
| 2026-04-23 19:20 | 34.68785 | -80.74673 | 32165 ft | 443 kts | 297° |
| 2026-04-23 19:21 | 34.72912 | -80.84736 | 32162 ft | 444 kts | 297° |
| 2026-04-23 19:22 | 34.75657 | -80.91449 | 32155 ft | 444 kts | 297° |
| 2026-04-23 19:22 | 34.79770 | -81.01529 | 32167 ft | 444 kts | 297° |
| 2026-04-23 19:23 | 34.82503 | -81.08244 | 32172 ft | 444 kts | 297° |
| 2026-04-23 19:24 | 34.86605 | -81.18350 | 32176 ft | 443 kts | 297° |
| 2026-04-23 19:24 | 34.90691 | -81.28445 | 32163 ft | 443 kts | 297° |
| 2026-04-23 19:25 | 34.96118 | -81.41903 | 32155 ft | 443 kts | 297° |
| 2026-04-23 19:26 | 35.00184 | -81.52022 | 32135 ft | 443 kts | 297° |
| 2026-04-23 19:27 | 35.06833 | -81.69003 | 32135 ft | 443 kts | 295° |
| 2026-04-23 19:28 | 35.11886 | -81.82701 | 32148 ft | 443 kts | 295° |
| 2026-04-23 19:29 | 35.15696 | -81.92987 | 32144 ft | 444 kts | 295° |
| 2026-04-23 19:30 | 35.18874 | -82.03580 | 32157 ft | 445 kts | 283° |
| 2026-04-23 19:31 | 35.20671 | -82.14718 | 32138 ft | 445 kts | 282° |
| 2026-04-23 19:31 | 35.21882 | -82.22120 | 32139 ft | 445 kts | 282° |
| 2026-04-23 19:32 | 35.23131 | -82.29565 | 32141 ft | 446 kts | 282° |
| 2026-04-23 19:32 | 35.24384 | -82.36989 | 32132 ft | 446 kts | 282° |
| 2026-04-23 19:33 | 35.25634 | -82.44413 | 32141 ft | 446 kts | 282° |
| 2026-04-23 19:33 | 35.27499 | -82.55562 | 32208 ft | 446 kts | 282° |
| 2026-04-23 19:34 | 35.28734 | -82.62981 | 32199 ft | 446 kts | 282° |
| 2026-04-23 19:35 | 35.30579 | -82.74118 | 32190 ft | 445 kts | 282° |
| 2026-04-23 19:35 | 35.31799 | -82.81521 | 32174 ft | 445 kts | 282° |
| 2026-04-23 19:36 | 35.33020 | -82.88963 | 32176 ft | 445 kts | 282° |
| 2026-04-23 19:36 | 35.34234 | -82.96387 | 32157 ft | 445 kts | 282° |
| 2026-04-23 19:37 | 35.35449 | -83.03851 | 32169 ft | 446 kts | 282° |
| 2026-04-23 19:37 | 35.36654 | -83.11288 | 32159 ft | 446 kts | 282° |
| 2026-04-23 19:38 | 35.37855 | -83.18727 | 32155 ft | 447 kts | 282° |
| 2026-04-23 19:38 | 35.39049 | -83.26202 | 32154 ft | 447 kts | 282° |
| 2026-04-23 19:39 | 35.40247 | -83.33660 | 32159 ft | 447 kts | 282° |
| 2026-04-23 19:39 | 35.41448 | -83.41163 | 32155 ft | 448 kts | 282° |
| 2026-04-23 19:40 | 35.42637 | -83.48647 | 32156 ft | 449 kts | 282° |
| 2026-04-23 19:40 | 35.43630 | -83.54922 | 32150 ft | 449 kts | 282° |
| 2026-04-23 19:41 | 35.44813 | -83.62431 | 32150 ft | 450 kts | 282° |
| 2026-04-23 19:41 | 35.46001 | -83.70004 | 32168 ft | 450 kts | 282° |
| 2026-04-23 19:42 | 35.47176 | -83.77520 | 32163 ft | 450 kts | 282° |
| 2026-04-23 19:42 | 35.48347 | -83.85042 | 32170 ft | 450 kts | 282° |
| 2026-04-23 19:43 | 35.49515 | -83.92577 | 32162 ft | 450 kts | 282° |
| 2026-04-23 19:43 | 35.50682 | -84.00160 | 32148 ft | 450 kts | 282° |
| 2026-04-23 19:44 | 35.51841 | -84.07700 | 32144 ft | 451 kts | 282° |
| 2026-04-23 19:44 | 35.52996 | -84.15246 | 32153 ft | 451 kts | 282° |
| 2026-04-23 19:45 | 35.54152 | -84.22834 | 32147 ft | 451 kts | 282° |
| 2026-04-23 19:45 | 35.55299 | -84.30403 | 32134 ft | 451 kts | 282° |
| 2026-04-23 19:45 | 35.55868 | -84.34165 | 31735 ft | 456 kts | 282° |
| 2026-04-23 19:46 | 35.56444 | -84.37986 | 31376 ft | 450 kts | 282° |
| 2026-04-23 19:46 | 35.57014 | -84.41784 | 30873 ft | 447 kts | 281° |
| 2026-04-23 19:46 | 35.57569 | -84.45484 | 30416 ft | 443 kts | 281° |
| 2026-04-23 19:46 | 35.58125 | -84.49198 | 29880 ft | 440 kts | 281° |
| 2026-04-23 19:47 | 35.58676 | -84.52887 | 29332 ft | 436 kts | 281° |
| 2026-04-23 19:47 | 35.59222 | -84.56543 | 28829 ft | 432 kts | 281° |
| 2026-04-23 19:47 | 35.59752 | -84.60108 | 28351 ft | 427 kts | 281° |
| 2026-04-23 19:47 | 35.60288 | -84.63718 | 27858 ft | 424 kts | 281° |
| 2026-04-23 19:48 | 35.60809 | -84.67233 | 27386 ft | 420 kts | 281° |
| 2026-04-23 19:48 | 35.61331 | -84.70766 | 26911 ft | 416 kts | 281° |
| 2026-04-23 19:48 | 35.61847 | -84.74263 | 26441 ft | 413 kts | 281° |
| 2026-04-23 19:48 | 35.62353 | -84.77696 | 25984 ft | 411 kts | 281° |
| 2026-04-23 19:49 | 35.62862 | -84.81158 | 25521 ft | 409 kts | 281° |
| 2026-04-23 19:49 | 35.63367 | -84.84603 | 25060 ft | 407 kts | 280° |
| 2026-04-23 19:49 | 35.63865 | -84.88003 | 24587 ft | 406 kts | 280° |
| 2026-04-23 19:49 | 35.64364 | -84.91426 | 24112 ft | 406 kts | 280° |
| 2026-04-23 19:50 | 35.64865 | -84.94862 | 23630 ft | 406 kts | 280° |
| 2026-04-23 19:50 | 35.65355 | -84.98232 | 23111 ft | 404 kts | 280° |
| 2026-04-23 19:50 | 35.65849 | -85.01638 | 22623 ft | 400 kts | 280° |
| 2026-04-23 19:50 | 35.66333 | -85.04975 | 22158 ft | 397 kts | 280° |
| 2026-04-23 19:51 | 35.66817 | -85.08325 | 21699 ft | 394 kts | 280° |
| 2026-04-23 19:51 | 35.67289 | -85.11597 | 21245 ft | 391 kts | 280° |
| 2026-04-23 19:51 | 35.67766 | -85.14904 | 20808 ft | 388 kts | 280° |
| 2026-04-23 19:51 | 35.68227 | -85.18128 | 20369 ft | 385 kts | 279° |
| 2026-04-23 19:52 | 35.68282 | -85.21414 | 20025 ft | 379 kts | 260° |
| 2026-04-23 19:52 | 35.67734 | -85.24528 | 19847 ft | 372 kts | 257° |
| 2026-04-23 19:52 | 35.67138 | -85.27634 | 19636 ft | 373 kts | 256° |
| 2026-04-23 19:52 | 35.66531 | -85.30777 | 19426 ft | 379 kts | 256° |
| 2026-04-23 19:53 | 35.65933 | -85.33909 | 19208 ft | 381 kts | 256° |
| 2026-04-23 19:53 | 35.65335 | -85.37077 | 18978 ft | 378 kts | 257° |
| 2026-04-23 19:53 | 35.64748 | -85.40221 | 18772 ft | 375 kts | 257° |
| 2026-04-23 19:53 | 35.64167 | -85.43352 | 18558 ft | 373 kts | 257° |
| 2026-04-23 19:54 | 35.63596 | -85.46435 | 18334 ft | 371 kts | 257° |
| 2026-04-23 19:54 | 35.63024 | -85.49526 | 18100 ft | 369 kts | 257° |
| 2026-04-23 19:54 | 35.62452 | -85.52611 | 17874 ft | 368 kts | 257° |
| 2026-04-23 19:54 | 35.61890 | -85.55642 | 17660 ft | 366 kts | 256° |
| 2026-04-23 19:55 | 35.61323 | -85.58693 | 17452 ft | 364 kts | 256° |
| 2026-04-23 19:55 | 35.60756 | -85.61737 | 17247 ft | 363 kts | 256° |
| 2026-04-23 19:55 | 35.60197 | -85.64739 | 17038 ft | 362 kts | 257° |
| 2026-04-23 19:55 | 35.59638 | -85.67732 | 16836 ft | 362 kts | 256° |
| 2026-04-23 19:56 | 35.59075 | -85.70748 | 16637 ft | 361 kts | 256° |
| 2026-04-23 19:56 | 35.58309 | -85.73677 | 16395 ft | 359 kts | 240° |
| 2026-04-23 19:56 | 35.56949 | -85.76204 | 16244 ft | 357 kts | 235° |
| 2026-04-23 19:56 | 35.55540 | -85.78716 | 16038 ft | 356 kts | 235° |
| 2026-04-23 19:57 | 35.54144 | -85.81240 | 15837 ft | 354 kts | 238° |
| 2026-04-23 19:57 | 35.53293 | -85.83993 | 15695 ft | 349 kts | 261° |
| 2026-04-23 19:57 | 35.53357 | -85.86987 | 15524 ft | 353 kts | 281° |
| 2026-04-23 19:57 | 35.54216 | -85.89841 | 15330 ft | 358 kts | 299° |
| 2026-04-23 19:58 | 35.55732 | -85.92223 | 15147 ft | 358 kts | 311° |
| 2026-04-23 19:58 | 35.57457 | -85.94455 | 14936 ft | 357 kts | 313° |
| 2026-04-23 19:58 | 35.59171 | -85.96613 | 14735 ft | 356 kts | 313° |
| 2026-04-23 19:58 | 35.60906 | -85.98815 | 14531 ft | 355 kts | 313° |
| 2026-04-23 19:59 | 35.62593 | -86.00988 | 14336 ft | 354 kts | 311° |
| 2026-04-23 19:59 | 35.64286 | -86.03195 | 14135 ft | 353 kts | 312° |
| 2026-04-23 19:59 | 35.65979 | -86.05410 | 13931 ft | 352 kts | 312° |
| 2026-04-23 19:59 | 35.67628 | -86.07591 | 13713 ft | 351 kts | 311° |
| 2026-04-23 20:00 | 35.69282 | -86.09811 | 13502 ft | 350 kts | 311° |
| 2026-04-23 20:00 | 35.70914 | -86.12008 | 13304 ft | 348 kts | 310° |
| 2026-04-23 20:00 | 35.72464 | -86.14306 | 13098 ft | 346 kts | 306° |
| 2026-04-23 20:00 | 35.73879 | -86.16662 | 12916 ft | 345 kts | 304° |
| 2026-04-23 20:01 | 35.75284 | -86.19072 | 12698 ft | 345 kts | 304° |
| 2026-04-23 20:01 | 35.76689 | -86.21481 | 12513 ft | 344 kts | 304° |
| 2026-04-23 20:01 | 35.78078 | -86.23843 | 12329 ft | 344 kts | 304° |
| 2026-04-23 20:01 | 35.79498 | -86.26240 | 12132 ft | 344 kts | 304° |
| 2026-04-23 20:02 | 35.80895 | -86.28588 | 11935 ft | 344 kts | 304° |
| 2026-04-23 20:02 | 35.82318 | -86.30971 | 11744 ft | 343 kts | 304° |
| 2026-04-23 20:02 | 35.83739 | -86.33349 | 11542 ft | 342 kts | 304° |
| 2026-04-23 20:02 | 35.85134 | -86.35683 | 11359 ft | 341 kts | 304° |
| 2026-04-23 20:03 | 35.86546 | -86.38046 | 11160 ft | 340 kts | 304° |
| 2026-04-23 20:03 | 35.87936 | -86.40374 | 10971 ft | 340 kts | 304° |
| 2026-04-23 20:03 | 35.89337 | -86.42724 | 10787 ft | 338 kts | 304° |
| 2026-04-23 20:03 | 35.90719 | -86.45039 | 10577 ft | 330 kts | 304° |
| 2026-04-23 20:04 | 35.92068 | -86.47301 | 10399 ft | 322 kts | 304° |
| 2026-04-23 20:04 | 35.93368 | -86.49484 | 10237 ft | 316 kts | 304° |
| 2026-04-23 20:04 | 35.94657 | -86.51649 | 10118 ft | 306 kts | 304° |
| 2026-04-23 20:04 | 35.95896 | -86.53731 | 10117 ft | 294 kts | 303° |
| 2026-04-23 20:05 | 35.97077 | -86.55717 | 9747 ft | 293 kts | 303° |
| 2026-04-23 20:05 | 35.98295 | -86.57727 | 9440 ft | 288 kts | 308° |
| 2026-04-23 20:05 | 35.99923 | -86.59179 | 9174 ft | 292 kts | 338° |
| 2026-04-23 20:05 | 36.01891 | -86.59559 | 8988 ft | 289 kts | 4° |
| 2026-04-23 20:06 | 36.03842 | -86.59018 | 8787 ft | 284 kts | 19° |
| 2026-04-23 20:06 | 36.05707 | -86.58233 | 8602 ft | 281 kts | 19° |
| 2026-04-23 20:06 | 36.07556 | -86.57466 | 8401 ft | 277 kts | 19° |
| 2026-04-23 20:06 | 36.09359 | -86.56730 | 8231 ft | 273 kts | 18° |
| 2026-04-23 20:07 | 36.11140 | -86.56028 | 8137 ft | 264 kts | 17° |
| 2026-04-23 20:07 | 36.12871 | -86.55372 | 8067 ft | 255 kts | 17° |
| 2026-04-23 20:07 | 36.14541 | -86.54742 | 7901 ft | 251 kts | 17° |
| 2026-04-23 20:07 | 36.16227 | -86.54170 | 7663 ft | 250 kts | 14° |
| 2026-04-23 20:08 | 36.17893 | -86.53600 | 7437 ft | 250 kts | 16° |
| 2026-04-23 20:08 | 36.19563 | -86.53000 | 7224 ft | 249 kts | 17° |
| 2026-04-23 20:08 | 36.21228 | -86.52394 | 7019 ft | 246 kts | 16° |
| 2026-04-23 20:08 | 36.22852 | -86.51792 | 6670 ft | 246 kts | 16° |
| 2026-04-23 20:09 | 36.24494 | -86.51175 | 6312 ft | 245 kts | 17° |
| 2026-04-23 20:09 | 36.26146 | -86.50667 | 5882 ft | 243 kts | 0° |
| 2026-04-23 20:09 | 36.27667 | -86.51248 | 5672 ft | 225 kts | 317° |
| 2026-04-23 20:09 | 36.28496 | -86.52753 | 5537 ft | 204 kts | 288° |
| 2026-04-23 20:10 | 36.28829 | -86.53837 | 5353 ft | 201 kts | 286° |
| 2026-04-23 20:10 | 36.29416 | -86.56007 | 4946 ft | 196 kts | 275° |
| 2026-04-23 20:10 | 36.29164 | -86.57610 | 4558 ft | 192 kts | 236° |
| 2026-04-23 20:10 | 36.28421 | -86.58993 | 4240 ft | 191 kts | 235° |
| 2026-04-23 20:11 | 36.27536 | -86.60149 | 3870 ft | 189 kts | 205° |
| 2026-04-23 20:11 | 36.26273 | -86.60593 | 3581 ft | 187 kts | 197° |
| 2026-04-23 20:11 | 36.25066 | -86.61192 | 3285 ft | 186 kts | 203° |
| 2026-04-23 20:11 | 36.23849 | -86.61719 | 3003 ft | 187 kts | 198° |
| 2026-04-23 20:12 | 36.22626 | -86.62209 | 2705 ft | 183 kts | 198° |
| 2026-04-23 20:12 | 36.21420 | -86.62691 | 2315 ft | 182 kts | 198° |
| 2026-04-23 20:12 | 36.20231 | -86.63167 | 2013 ft | 170 kts | 198° |
| 2026-04-23 20:12 | 36.19143 | -86.63602 | 1800 ft | 158 kts | 198° |
| 2026-04-23 20:13 | 36.18119 | -86.64016 | 1543 ft | 153 kts | 199° |
| 2026-04-23 20:13 | 36.17110 | -86.64433 | 1369 ft | 151 kts | 198° |
| 2026-04-23 20:13 | 36.16108 | -86.64826 | 1195 ft | 151 kts | 198° |
| 2026-04-23 20:13 | 36.15129 | -86.65221 | 974 ft | 148 kts | 198° |
| 2026-04-23 20:14 | 36.14167 | -86.65608 | 755 ft | 147 kts | 197° |
| 2026-04-23 20:14 | 36.13194 | -86.66001 | 563 ft | 147 kts | 197° |
| 2026-04-23 20:14 | 36.12342 | -86.66341 | 570 ft | 94 kts | 198° |
| 2026-04-23 20:14 | 36.11960 | -86.66493 | 577 ft | 38 kts | 198° |
| 2026-04-23 20:15 | 36.11840 | -86.66588 | 580 ft | 16 kts | 281° |
| 2026-04-23 20:15 | 36.11912 | -86.66654 | 579 ft | 16 kts | 16° |
| 2026-04-23 20:15 | 36.12016 | -86.66613 | 576 ft | 16 kts | 18° |
| 2026-04-23 20:15 | 36.12131 | -86.66567 | 570 ft | 19 kts | 18° |
| 2026-04-23 20:16 | 36.12253 | -86.66528 | 568 ft | 17 kts | 348° |
| 2026-04-23 20:16 | 36.12309 | -86.66651 | 574 ft | 17 kts | 288° |
| 2026-04-23 20:16 | 36.12343 | -86.66786 | 571 ft | 16 kts | 289° |
| 2026-04-23 20:16 | 36.12402 | -86.66897 | 570 ft | 15 kts | 314° |
| 2026-04-23 20:17 | 36.12489 | -86.66950 | 571 ft | 15 kts | 23° |
| 2026-04-23 20:17 | 36.12593 | -86.66878 | 574 ft | 20 kts | 30° |
| 2026-04-23 20:17 | 36.12713 | -86.66780 | 570 ft | 21 kts | 37° |
| 2026-04-23 20:17 | 36.12843 | -86.66773 | 568 ft | 16 kts | 318° |
| 2026-04-23 20:18 | 36.12913 | -86.66773 | 568 ft | 10 kts | 39° |
| 2026-04-23 20:18 | 36.12930 | -86.66755 | 568 ft | 0 kts | 40° |